Extreme weather reports worldwide

Low visibility

Station
 
Location
 
Name
 
Wind
Knots
Gust
Knots
Vis
SM
Temp/Dew
C
Baro
inHg
METAR
 
KMWN 43 0.06 -14/-14 KMWN 301655Z 28043KT 1/16SM -SHSN FZFG BLSN VV000 M14/M14 RMK VRY LGT ICG
LIMH IT Pian Rosà 37 49 0.06 -11/-12 29.85 LIMH 301555Z 06037G49KT 0100 -SN FZFG VV/// M11/M12 Q1011 RMK MON INVIS VAL INVIS VIS MIN 0100
NAJ UBBN Nakhchivan, AZ Nakhchivan Airport 4 0.09 3/2 29.88 UBBN 301700Z 34004KT 0150 R14R/0450 R14L/M0200 FG VV005 03/02 Q1012 NOSIG RMK MT OBSC QFE684
NOA YSNW AU Nowra Airport 4 0.12 18/18 29.94 YSNW 301700Z AUTO 15004KT 0200 FG OVC001 18/18 Q1014
MUO KMUO Mountain Home, US Mountain Home Air Force Base 8 0.13 0/0 30.39 KMUO 301658Z 09008KT 1/8SM R12/0600V0700FT -DZ FG VV001 01/01 A3039 RMK AO2A UPB1558E19DZB19 SLP313 P0000 T00070006 $

Station
 
Location
 
Name
 
Wind
Knots
Gust
Knots
Vis
SM
Temp/Dew
C
Baro
inHg
METAR
 
TOA KTOA Torrance, US Zamperini Field 0 0.13 13/12 30.08 KTOA 301647Z 00000KT 1/8SM FG OVC002 13/12 A3008
KMLP 7 0.25 0/-1 30.11 KMLP 301702Z AUTO 25007KT 1/4SM SN FZFG VV002 M01/M02 A3011 RMK AO2 P0002 T10061017
YAZ CYAZ Tofino, CA Tofino / Long Beach Airport 14 20 0.25 11/10 29.98 CYAZ 301701Z 15014G20KT 1/4SM +RA FG OVC003 11/10 A2998 RMK SF8 SLP156
CYGE Golden, CA Golden Airport 2 0.25 1/1 29.91 CYGE 301700Z 33002KT 1/4SM FG OVC018 01/01 A2991 RMK FG7SC1 SLP158
KEDU Davis, US University Airport 3 0.25 7/7 30.20 KEDU 301655Z AUTO 01003KT 1/4SM OVC001 07/07 A3020 RMK AO1
APC KAPC Napa, US Napa County Airport 0 0.25 7/7 30.18 KAPC 301654Z 00000KT M1/4SM FG VV001 08/07 A3018 RMK AO2 SLP211 T00780072 $
KSIY Montague, US Siskiyou County Airport 3 0.25 1/0 30.41 KSIY 301653Z AUTO 26003KT M1/4SM FG VV001 01/01 A3041 RMK AO2 SLP326 T00110006
SBA KSBA Santa Barbara, US Santa Barbara Municipal Airport 0 0.25 11/11 30.07 KSBA 301653Z 00000KT 1/4SM R07/1000V1200FT FG VV002 12/12 A3007 RMK AO2 SLP183 T01170117 $
ONO KONO Ontario, US Ontario Municipal Airport 0 0.25 0/-1 30.43 KONO 301653Z AUTO 00000KT M1/4SM FG VV002 00/M01 A3043 RMK AO2 SLP325 I1000 T00001011
HHR KHHR Hawthorne, US Jack Northrop Field Hawthorne Municipal Airport 0 0.25 11/11 30.08 KHHR 301653Z 00000KT 1/4SM VV002 12/12 A3008 RMK AO2 SLP187 T01170117 $
FUL KFUL Fullerton, US Fullerton Municipal Airport 0 0.25 3/0 30.07 KFUL 301653Z COR 00000KT M1/4SM HZ VV002 03/00 A3007 RMK AO2 SLP182 T00330000
CLD KCRQ Carlsbad, US Mc Clellan-Palomar Airport 3 0.25 10/10 30.06 KCRQ 301653Z 18003KT M1/4SM R24/0700V1600FT FG VV001 11/11 A3006 RMK AO2 SLP177 T01060106
NUQ KNUQ Mountain View, US Moffett Federal Airfield 0 0.25 11/11 30.17 KNUQ 301650Z AUTO 00000KT M1/4SM FG OVC002 11/11 A3017 RMK AO2
PAO KPAO Palo Alto, US Palo Alto Airport of Santa Clara County 0 0.25 10/9 30.17 KPAO 301647Z 00000KT 1/4SM FG VV005 10/09 A3017
KO86 0 0.25 0/0 30.35 KO86 301640Z AUTO 00000KT 1/4SM OVC002 00/00 A3035 RMK AO1
K77S 3 0.25 5/5 30.33 K77S 301635Z AUTO 18003KT M1/4SM FG 05/05 A3033 RMK A01
TLS LFBO Toulouse/Blagnac, FR Toulouse-Blagnac Airport 1 0.28 2/2 30.30 LFBO 301700Z AUTO VRB01KT 0450 0350 R14R/0400N R32L/0650U R14L/0550N R32R/0600N FG VV/// 02/02 Q1026 BECMG 0300 FG
AGF LFBA Agen/La Garenne, FR Agen-La Garenne Airport 6 0.28 2/2 30.30 LFBA 301700Z AUTO 13006KT 0450 0400 R29/0500N FG VV/// 02/02 Q1026 BECMG 0300 FG
ABZ EGPD Aberdeen, GB Aberdeen Dyce Airport 3 0.4 6/6 29.38 EGPD 301650Z AUTO 34003KT 0650 R16/1000U FG SCT002 BKN017 BKN025 06/06 Q0995
EGOM Spadeadam, GB RAF Spadeadam 14 0.47 9/8 29.47 EGOM 301650Z AUTO 25014KT 0750 RA VV/// 09/08 Q0998
LAX KLAX Los Angeles, US Los Angeles International Airport 0 0.5 11/11 30.08 KLAX 301701Z 00000KT 1/2SM R25L/1200V3500FT BCFG BR BKN002 12/12 A3008 RMK AO2 VIS 1/4V1 1/2 T01170117
KUF UWWW Samara, RU Kurumoch International Airport 4 0.5 3/2 29.38 UWWW 301700Z 20002MPS 0800 0200NE R15/P2000U PRFG VV001 03/02 Q0995 R15/290157 NOSIG RMK QBB050 QFE735/0980
UCFO 4 0.5 2/0 30.21 UCFO 301700Z 20002MPS 0800 R12/1400N FG FU NSC 02/M00 Q1023 R12/0///95 NOSIG
SLRQ 7 0.5 23/23 29.79 SLRQ 301700Z 12007KT 0800 +RA SCT006 BKN013 OVC070 23/23 Q1009
MUX OPMT Multan, PK Multan International Airport 0 0.5 16/13 30.03 OPMT 301700Z 00000KT 0800 BR NSC 16/13 Q1017 NOSIG
FSP LFVP Saint-Pierre, PM St Pierre Airport 20 0.5 8/8 29.23 LFVP 301700Z 24020KT 0800 R26/1900U -DZRA FG BKN002 BKN010 08/08 Q0990 NOSIG
YEK CYEK Arviat, CA Arviat Airport 27 34 0.5 -20/-22 29.61 CYEK 301700Z 32027G34KT 1/2SM IC BLSN OVC120 M20/M22 A2961 RMK BLSN7AC1 SLP031
KVC PAVC King Cove, US King Cove Airport 16 36 0.5 -8/-10 29.49 PAVC 301656Z AUTO 28016G36KT 250V320 1/2SM SN FZFG FEW006 BKN011 OVC021 M08/M11 A2949 RMK AO2 PK WND 27049/1617 SLP989 P0000 T10831106 FZRANO
CZF PACZ Cape Romanzof, US Cape Romanzof LRRS Airport 38 46 0.5 -17/-19 29.51 PACZ 301655Z AUTO 35038G46KT 210V140 1/2SM -SN FG BKN016 M17/M19 A2951
ONP KONP Newport, US Newport Municipal Airport 8 0.5 12/12 30.34 KONP 301655Z AUTO 21008KT 1/2SM FG OVC002 12/12 A3034 RMK AO2
KN38 9 0.5 -2/-2 29.82 KN38 301655Z AUTO 20009KT 1/2SM FZFG OVC006 M02/M02 A2982 RMK AO2
SNA KSNA Santa Ana, US John Wayne Airport-Orange County Airport 0 0.5 13/11 30.07 KSNA 301653Z 00000KT 1/2SM R20R/3000V4000FT FG OVC002 13/11 A3007 RMK AO2 SLP183 T01330111
OXR KOXR Oxnard, US Oxnard Airport 7 0.5 11/11 30.07 KOXR 301651Z 16007KT 1/2SM FG VV002 12/12 A3007 RMK AO2 SLP182 T01170117 $
VKO UUWW Moscow, RU Vnukovo International Airport 19 0.56 -3/-4 28.79 UUWW 301700Z 23010MPS 0900 0800S R24/1800N +SN VV007 M03/M04 Q0975 WS R24 R24/490537 TEMPO 0700 +SHSN BKN012CB
VVO UHWW Vladivostok, RU Vladivostok International Airport 17 27 0.62 -8/-11 29.59 UHWW 301700Z 01009G14MPS 1000 0900W R25L/P2000U +SHSN BLSN SCT010 BKN020CB M08/M11 Q1002 R25L/490535 NOSIG RMK QFE750
ALA UAAA Almaty, KZ Almaty Airport 2 0.62 -1/-4 30.24 UAAA 301700Z VRB01MPS 1000 R23R/P2000 R23L/P2000N BR FU FEW200 M01/M04 Q1024 NOSIG
LIVE 4 0.62 -2/-3 29.88 LIVE 301555Z 01004KT 1000 -SN BR OVC004 M02/M03 Q1012 RMK OVC VIS MIN 1000
UTO8 0.63 / UTO8 M M M 104/-23/-28/2814/M/ PK WND 2819 1507Z SOG 05 1012 98MM
HMA USHH Khanty-Mansiysk, RU Khanty Mansiysk Airport 10 0.68 -9/-11 29.91 USHH 301700Z 08005MPS 030V100 1100 R06/P2000D SN VV011 M09/M11 Q1013 R06/492032 TEMPO 0500 +SN BKN003
IDA KIDA Idaho Falls, US Idaho Falls Regional Airport 9 0.75 0/-1 30.37 KIDA 301701Z 20009KT 3/4SM R21/2200VP6000FT BR BKN001 OVC023 M01/M02 A3037 RMK AO2 T10061017
YCG CYCG Castlegar, CA Castlegar/West Kootenay Regional Airport 2 0.75 5/5 30.05 CYCG 301700Z 11002KT 3/4SM -RA BR FEW003 BKN028 OVC035 05/05 A3005 RMK FG1ST1SC5SC1 SLP192
YBX CYBX Lourdes-De-Blanc-Sablon, CA Lourdes de Blanc Sablon Airport 12 18 0.75 8/8 29.01 CYBX 301700Z 21012G18KT 3/4SM -RA BR BKN002 OVC020 08/08 A2901 RMK SC6SC2 SLP826 DENSITY ALT 500FT
IGG PAIG Igiugig, US Igiugig Airport 9 0.75 -17/-20 29.13 PAIG 301656Z AUTO 18009KT 3/4SM BR OVC024 M18/M20 A2913 RMK AO2 VIS 1/2V1 1/4 SLP873 T11781200 PWINO FZRANO $
TNC PATC Tin City, US Tin City Long Range Radar Station Airport 29 0.75 -19/-21 29.65 PATC 301655Z AUTO 03029KT 3/4SM -SN BKN016 M19/M21 A2965 RMK AO2 PK WND 03034/1556 SNB1511 SLP053 P0000 T11931214
KANJ Sault Ste Marie, US Sault Ste Marie Municipal Sanderson Field 8 0.75 1/-1 29.67 KANJ 301655Z AUTO 24008KT 3/4SM -SN BR BKN005 OVC008 01/M01 A2967 RMK AO2 SLP052 P0004 T00111011